Terminal Aerodrome Forecast
Issued by NWS

Home | Current Version | Previous Version | Text Only | Print | Product List | Glossary On
Versions: 1 2 3 4 5 6 7 8 9 10 11 12 13 14 15 16 17 18 19 20 21 22 23 24 25 26 27 28 29 30 31 32 33 34 35 36 37 38 39
622
FTUS43 KLSX 301601 AAC
TAFUIN
TAF AMD
KUIN 301601Z 3016/0112 12014G22KT 3SM -RA BR OVC004
      TEMPO 3016/3018 5SM -RA BR OVC008
     FM301800 11012G22KT P6SM OVC007
     FM302000 12010KT P6SM BKN015
     FM302100 VRB06KT P6SM BKN020
     FM010300 05006KT P6SM BKN012=

USA.gov is the U.S. government's official web portal to all federal, state and local government web resources and services.